Skip to content
You are here: Gozo Weather
Gozo Weather Station for the very latest live weather conditions from Gozo and Malta
 
 TIME   TEMPERATURE   WINDSPEED   DIRECTION   HUMIDITY   BAROMETER   RAINFALL 
1:55 10.0°C (50.0°F) 0.0 kmh (0.0 mph) WNW 70% 1022.0hPa (30.18 inHg) 0.0mm (0.00 in.)
12:55 10.3°C (50.5 °F) 0.0 kmh (0.0 mph) WSW 70% 1022.0hPa (30.18 inHg) 0.0mm (0.00 in.)
11:55 10.4°C (50.7 °F) 11.1 kmh (6.9 mph) N 69% 1021.0hPa (30.15 inHg) 0.0mm (0.00 in.)
10:55 10.5°C (50.9 °F) 11.1 kmh (6.9 mph) NNW 69% 1022.0hPa (30.18 inHg) 0.0mm (0.00 in.)
9:55 11.1°C (52.0 °F) 0.0 kmh (0.0 mph) NNW 68% 1022.0hPa (30.18 inHg) 0.0mm (0.00 in.)
8:55 11.1°C (52.0 °F) 9.3 kmh (5.8 mph) NW 67% 1021.0hPa (30.15 inHg) 0.0mm (0.00 in.)
7:55 11.3°C (52.3 °F) 0.0 kmh (0.0 mph) WNW 66% 1021.0hPa (30.15 inHg) 0.0mm (0.00 in.)
6:55 11.4°C (52.5 °F) 0.0 kmh (0.0 mph) WNW 65% 1020.0hPa (30.12 inHg) 0.0mm (0.00 in.)
5:55 12.0°C (53.6 °F) 13.0 kmh (8.1 mph) NNW 64% 1020.0hPa (30.12 inHg) 0.0mm (0.00 in.)
4:55 12.5°C (54.5 °F) 24.1 kmh (15.0 mph) N 64% 1019.0hPa (30.09 inHg) 0.0mm (0.00 in.)
3:55 12.8°C (55.0 °F) 22.2 kmh (13.8 mph) N 65% 1019.0hPa (30.09 inHg) 0.0mm (0.00 in.)
2:55 13.8°C (56.8 °F) 16.7 kmh (10.4 mph) N 67% 1019.0hPa (30.09 inHg) 0.0mm (0.00 in.)
1:55 13.8°C (56.8 °F) 25.9 kmh (16.1 mph) N 68% 1019.0hPa (30.09 inHg) 0.0mm (0.00 in.)
12:55 13.6°C (56.5 °F) 20.4 kmh (12.7 mph) WNW 70% 1020.0hPa (30.12 inHg) 0.0mm (0.00 in.)
11:48 13.3°C (55.9 °F) 27.8 kmh (17.3 mph) NNW 72% 1020.0hPa (30.12 inHg) 0.0mm (0.00 in.)
10:43 13.4°C (56.1 °F) 18.5 kmh (11.5 mph) NNW 73% 1019.0hPa (30.09 inHg) 0.0mm (0.00 in.)
9:43 13.1°C (55.6 °F) 20.4 kmh (12.7 mph) NNW 76% 1019.0hPa (30.09 inHg) 0.0mm (0.00 in.)
8:38 11.4°C (52.5 °F) 11.1 kmh (6.9 mph) NNW 76% 1018.0hPa (30.06 inHg) 0.0mm (0.00 in.)
7:38 11.0°C (51.8 °F) 16.7 kmh (10.4 mph) N 77% 1017.0hPa (30.03 inHg) 0.0mm (0.00 in.)
6:38 11.0°C (51.8 °F) 0.0 kmh (0.0 mph) WNW 76% 1017.0hPa (30.03 inHg) 0.0mm (0.00 in.)
5:38 11.0°C (51.8 °F) 0.0 kmh (0.0 mph) W 76% 1017.0hPa (30.03 inHg) 0.0mm (0.00 in.)
4:38 11.2°C (52.2 °F) 0.0 kmh (0.0 mph) NNW 76% 1016.0hPa (30.00 inHg) 0.0mm (0.00 in.)
3:38 11.3°C (52.3 °F) 0.0 kmh (0.0 mph) N 75% 1016.0hPa (30.00 inHg) 0.0mm (0.00 in.)
2:38 11.5°C (52.7 °F) 0.0 kmh (0.0 mph) NNW 75% 1016.0hPa (30.00 inHg) 0.0mm (0.00 in.)

You need the latest version of Flash Player to view some of our content.


Why not download and install the latest version now?
It will only take you a moment and will ensure that you can view all the latest flash designed websites.

Translate this page

Animated Satellite

Click per aprire http://www.gozo.ws/Animation.php
copyright 2015 EUMETSAT

European Lightning Activity


Please click image for full size

Sponsored Links